This is the latest recevied weather packets stored in our database for station/object WD0REW. If no packets are shown the sender has not sent any weather packets the latest 10 day(s).
| Time | Temp. | Humidity | Pressure | Rain* | Wind** | Luminosity | Snow |
|---|---|---|---|---|---|---|---|
| 1777920620 | 26.67° C | 43% | 1007.6 hPa | 0 mm | - | 772 W/m² | - |
| 1777920316 | 26.67° C | 40% | 1007.7 hPa | 0 mm | - | 779 W/m² | - |
| 1777920012 | 27.22° C | 40% | 1007.8 hPa | 0 mm | - | 782 W/m² | - |
| 1777919709 | 26.67° C | 42% | 1007.8 hPa | 0 mm | - | 782 W/m² | - |
| 1777919407 | 27.22° C | 40% | 1007.7 hPa | 0 mm | - | 788 W/m² | - |
| 1777919103 | 26.67° C | 45% | 1007.8 hPa | 0 mm | - | 788 W/m² | - |
| 1777918801 | 26.67° C | 41% | 1007.6 hPa | 0 mm | - | 788 W/m² | - |
| 1777918498 | 26.67° C | 42% | 1007.4 hPa | 0 mm | - | 794 W/m² | - |
| 1777918196 | 26.11° C | 43% | 1007.7 hPa | 0 mm | - | 798 W/m² | - |
| 1777917895 | 26.67° C | 42% | 1007.6 hPa | 0 mm | - | 803 W/m² | - |
| 1777917593 | 26.67° C | 43% | 1007.6 hPa | 0 mm | - | 802 W/m² | - |
| 1777917290 | 26.67° C | 45% | 1007.8 hPa | 0 mm | - | 803 W/m² | - |
| 1777916987 | 26.11° C | 44% | 1007.7 hPa | 0 mm | - | 802 W/m² | - |
| 1777916685 | 26.11° C | 45% | 1008 hPa | 0 mm | - | 801 W/m² | - |
| 1777916382 | 26.11° C | 44% | 1008.1 hPa | 0 mm | - | 799 W/m² | - |
| 1777916078 | 26.11° C | 43% | 1008 hPa | 0 mm | - | 794 W/m² | - |
| 1777915776 | 25.56° C | 46% | 1007.8 hPa | 0 mm | - | 797 W/m² | - |
| 1777915471 | 26.11° C | 44% | 1008.1 hPa | 0 mm | - | 795 W/m² | - |
| 1777915168 | 25.56° C | 44% | 1008 hPa | 0 mm | - | 788 W/m² | - |
| 1777914865 | 25.56° C | 43% | 1008.1 hPa | 0 mm | - | 788 W/m² | - |
| 1777914562 | 25.56° C | 42% | 1008.1 hPa | 0 mm | - | 788 W/m² | - |
| 1777914259 | 25.56° C | 43% | 1008 hPa | 0 mm | - | 785 W/m² | - |
| 1777913955 | 25.56° C | 45% | 1008.1 hPa | 0 mm | - | 775 W/m² | - |
| 1777913652 | 26.11° C | 43% | 1008.2 hPa | 0 mm | - | 770 W/m² | - |
| 1777913349 | 25.56° C | 45% | 1008.2 hPa | 0 mm | - | 765 W/m² | - |
* Rain latest hour (hover to see other rain measurements)
** Current wind speed in m/s (hover to see current wind gust speed)